Time;durP1;ratioP1;P1;durP2;ratioP2;P2;SDS_P1;SDS_P2;PMS_P1;PMS_P2;Temp;Humidity;BMP_temperature;BMP_pressure;BME280_temperature;BME280_humidity;BME280_pressure;Samples;Min_cycle;Max_cycle;Signal;HPM_P1;HPM_P2
2023/01/22 00:00:28;;;;;;;40.67;18.60;;;;;-0.80;102778.00;;;;10354050;28;20199;-79
2023/01/22 00:05:30;;;;;;;50.10;21.20;;;;;-0.80;102768.00;;;;10354852;28;20253;-79
2023/01/22 00:10:32;;;;;;;45.43;17.37;;;;;-0.70;102767.00;;;;10377755;28;20211;-79
2023/01/22 00:15:37;;;;;;;46.97;17.77;;;;;-0.70;102764.00;;;;10396601;28;20309;-79
2023/01/22 00:20:40;;;;;;;40.27;16.80;;;;;-0.70;102772.00;;;;10402949;28;20201;-79
2023/01/22 00:25:43;;;;;;;48.53;16.87;;;;;-0.70;102764.00;;;;10356579;28;20257;-79
2023/01/22 00:30:45;;;;;;;45.20;17.83;;;;;-0.70;102753.00;;;;10347115;28;20250;-79
2023/01/22 00:35:46;;;;;;;43.10;17.60;;;;;-0.80;102765.00;;;;10354344;28;20290;-79
2023/01/22 00:40:48;;;;;;;35.07;15.50;;;;;-0.80;102753.00;;;;10355417;28;20211;-79
2023/01/22 00:45:50;;;;;;;42.67;17.27;;;;;-0.90;102757.00;;;;10412522;28;20601;-79
2023/01/22 00:50:53;;;;;;;45.87;15.80;;;;;-0.90;102745.00;;;;10366784;28;20223;-79
2023/01/22 00:56:00;;;;;;;38.00;15.67;;;;;-0.90;102743.00;;;;10368663;28;20207;-79
2023/01/22 01:01:03;;;;;;;41.97;16.83;;;;;-0.90;102747.00;;;;10348024;28;20203;-79
2023/01/22 01:06:11;;;;;;;48.63;16.93;;;;;-0.90;102753.00;;;;10329014;28;20207;-79
2023/01/22 01:11:17;;;;;;;45.70;17.07;;;;;-0.90;102741.00;;;;10389852;28;20211;-79
2023/01/22 01:16:25;;;;;;;47.80;17.27;;;;;-0.90;102738.00;;;;10375000;28;20214;-79
2023/01/22 01:21:27;;;;;;;42.33;16.53;;;;;-0.90;102741.00;;;;10378272;28;20202;-79
2023/01/22 01:26:29;;;;;;;43.47;17.73;;;;;-0.90;102741.00;;;;10370988;28;20199;-79
2023/01/22 01:31:31;;;;;;;43.20;17.43;;;;;-1.00;102737.00;;;;10357545;28;20253;-78
2023/01/22 01:36:33;;;;;;;43.27;16.60;;;;;-1.00;102748.00;;;;10341463;28;20205;-79
2023/01/22 01:41:50;;;;;;;39.90;17.23;;;;;-1.00;102737.00;;;;10361296;28;20211;-79
2023/01/22 01:46:52;;;;;;;38.97;16.20;;;;;-1.10;102727.00;;;;10392857;28;20253;-78
2023/01/22 01:51:56;;;;;;;29.63;12.67;;;;;-1.10;102736.00;;;;10373799;28;20226;-79
2023/01/22 01:57:17;;;;;;;36.03;15.20;;;;;-1.00;102727.00;;;;10375655;28;20535;-79
2023/01/22 02:02:19;;;;;;;41.40;16.77;;;;;-1.00;102724.00;;;;10391762;28;20230;-79
2023/01/22 02:07:22;;;;;;;42.20;15.73;;;;;-0.90;102716.00;;;;10375310;28;20310;-78
2023/01/22 02:12:24;;;;;;;36.87;15.33;;;;;-0.90;102712.00;;;;10375513;28;20282;-79
2023/01/22 02:17:26;;;;;;;41.37;16.50;;;;;-1.00;102705.00;;;;10375395;28;20226;-79
2023/01/22 02:22:31;;;;;;;40.97;16.57;;;;;-1.00;102700.00;;;;10353638;28;20673;-79
2023/01/22 02:27:34;;;;;;;41.33;18.23;;;;;-0.90;102709.00;;;;10372194;28;20206;-79
2023/01/22 02:32:36;;;;;;;41.13;16.17;;;;;-0.90;102693.00;;;;10383430;28;20215;-79
2023/01/22 02:37:37;;;;;;;48.13;17.47;;;;;-0.90;102682.00;;;;10381307;28;20227;-79
2023/01/22 02:42:40;;;;;;;46.27;18.13;;;;;-0.90;102699.00;;;;10373195;28;20432;-79
2023/01/22 02:47:42;;;;;;;43.07;16.90;;;;;-0.80;102694.00;;;;10388894;28;20203;-79
2023/01/22 02:52:44;;;;;;;41.30;17.30;;;;;-0.70;102690.00;;;;10389951;28;20744;-78
2023/01/22 02:57:46;;;;;;;41.10;17.63;;;;;-0.70;102695.00;;;;10357425;28;20623;-79
2023/01/22 03:02:48;;;;;;;39.43;16.43;;;;;-0.60;102695.00;;;;10364095;28;20673;-79
2023/01/22 03:07:50;;;;;;;40.50;16.20;;;;;-0.60;102681.00;;;;10371660;28;20203;-78
2023/01/22 03:23:36;;;;;;;41.07;16.90;;;;;-0.50;102661.00;;;;10394960;28;20211;-79
2023/01/22 03:28:38;;;;;;;41.93;17.57;;;;;-0.50;102656.00;;;;10380772;28;20201;-79
2023/01/22 03:33:42;;;;;;;37.10;17.07;;;;;-0.50;102660.00;;;;10381676;28;20705;-79
2023/01/22 03:38:45;;;;;;;40.20;15.23;;;;;-0.40;102658.00;;;;10398011;28;20198;-79
2023/01/22 03:43:52;;;;;;;37.03;14.90;;;;;-0.40;102639.00;;;;10356379;28;20628;-79
2023/01/22 03:48:59;;;;;;;43.40;16.77;;;;;-0.40;102639.00;;;;10380695;28;20223;-79
2023/01/22 03:54:01;;;;;;;36.90;18.03;;;;;-0.50;102644.00;;;;10381072;28;20218;-79
2023/01/22 03:59:03;;;;;;;36.10;14.97;;;;;-0.50;102644.00;;;;10371721;28;20203;-79
2023/01/22 04:04:06;;;;;;;43.80;16.77;;;;;-0.50;102643.00;;;;10350268;28;20195;-79
2023/01/22 04:09:09;;;;;;;35.00;15.53;;;;;-0.60;102645.00;;;;10396125;28;20202;-79
2023/01/22 04:14:15;;;;;;;34.83;16.17;;;;;-0.70;102629.00;;;;10382878;28;20234;-79
2023/01/22 04:19:29;;;;;;;41.07;17.13;;;;;-0.80;102630.00;;;;10388440;28;20246;-79
2023/01/22 04:24:31;;;;;;;42.60;16.83;;;;;-1.00;102625.00;;;;10394867;28;20195;-79
2023/01/22 04:29:34;;;;;;;36.70;15.57;;;;;-1.10;102622.00;;;;10378409;28;20957;-79
2023/01/22 04:34:39;;;;;;;38.93;16.10;;;;;-1.10;102615.00;;;;10388119;28;20222;-79
2023/01/22 04:39:53;;;;;;;42.37;17.03;;;;;-1.00;102601.00;;;;10360703;28;20209;-79
2023/01/22 04:44:56;;;;;;;38.30;16.70;;;;;-0.90;102639.00;;;;10410745;28;20194;-79
2023/01/22 04:49:58;;;;;;;44.17;17.40;;;;;-0.80;102632.00;;;;10398584;28;20196;-79
2023/01/22 04:55:00;;;;;;;43.20;17.07;;;;;-0.70;102614.00;;;;10338793;28;20212;-79
2023/01/22 05:00:13;;;;;;;39.30;17.20;;;;;-0.70;102613.00;;;;10371531;28;20202;-79
2023/01/22 05:05:16;;;;;;;44.77;17.00;;;;;-0.70;102623.00;;;;10384620;28;20626;-79
2023/01/22 05:10:19;;;;;;;39.30;15.70;;;;;-0.60;102622.00;;;;10386722;28;20199;-79
2023/01/22 05:15:21;;;;;;;44.43;17.70;;;;;-0.60;102628.00;;;;10378643;28;20235;-79
2023/01/22 05:20:29;;;;;;;42.20;16.90;;;;;-0.50;102638.00;;;;10362397;28;20205;-79
2023/01/22 05:25:32;;;;;;;37.03;17.20;;;;;-0.50;102633.00;;;;10378013;28;20257;-79
2023/01/22 05:30:37;;;;;;;40.20;17.03;;;;;-0.50;102643.00;;;;10362095;28;20203;-79
2023/01/22 05:35:57;;;;;;;38.00;17.80;;;;;-0.40;102651.00;;;;10368325;28;20289;-79
2023/01/22 05:40:59;;;;;;;38.03;16.07;;;;;-0.40;102643.00;;;;10375034;28;20209;-79
2023/01/22 05:46:05;;;;;;;32.93;16.43;;;;;-0.30;102640.00;;;;10374671;28;20266;-79
2023/01/22 05:51:24;;;;;;;30.53;15.30;;;;;-0.30;102644.00;;;;10376636;28;20230;-79
2023/01/22 05:56:27;;;;;;;36.10;15.77;;;;;-0.30;102643.00;;;;10376190;28;20198;-79
2023/01/22 06:01:29;;;;;;;29.80;14.43;;;;;-0.40;102639.00;;;;10374048;28;20337;-79
2023/01/22 06:06:33;;;;;;;21.13;12.17;;;;;-0.50;102631.00;;;;10350405;28;20246;-78
2023/01/22 06:11:35;;;;;;;25.63;13.33;;;;;-0.60;102638.00;;;;10395557;28;20231;-78
2023/01/22 06:16:37;;;;;;;24.00;13.83;;;;;-0.80;102643.00;;;;10374331;28;20191;-79
2023/01/22 06:21:44;;;;;;;30.17;14.53;;;;;-0.70;102645.00;;;;10392719;28;20257;-79
2023/01/22 06:26:46;;;;;;;30.67;16.17;;;;;-0.70;102657.00;;;;10355615;28;20314;-79
2023/01/22 06:31:49;;;;;;;33.30;14.33;;;;;-0.70;102658.00;;;;10359789;28;20943;-79
2023/01/22 06:36:53;;;;;;;35.47;15.17;;;;;-0.60;102655.00;;;;10375675;28;20203;-79
2023/01/22 06:41:57;;;;;;;30.00;15.87;;;;;-0.50;102664.00;;;;10360743;28;20203;-79
2023/01/22 06:46:59;;;;;;;31.33;14.80;;;;;-0.50;102664.00;;;;10373483;28;20554;-79
2023/01/22 06:52:05;;;;;;;27.47;14.73;;;;;-0.50;102660.00;;;;10374543;28;20301;-79
2023/01/22 06:57:07;;;;;;;30.20;15.73;;;;;-0.60;102653.00;;;;10355862;28;20305;-79
2023/01/22 07:02:16;;;;;;;31.57;16.23;;;;;-0.60;102653.00;;;;10354891;28;20233;-79
2023/01/22 07:07:18;;;;;;;29.77;14.93;;;;;-0.60;102658.00;;;;10382320;28;20281;-79
2023/01/22 07:12:20;;;;;;;26.83;16.53;;;;;-0.60;102666.00;;;;10373150;28;20226;-79
2023/01/22 07:17:22;;;;;;;30.93;16.93;;;;;-0.60;102670.00;;;;10402966;28;20646;-79
2023/01/22 07:22:24;;;;;;;30.57;16.43;;;;;-0.60;102668.00;;;;10360177;28;20258;-79
2023/01/22 07:27:26;;;;;;;27.87;14.33;;;;;-0.50;102680.00;;;;10370868;28;20211;-79
2023/01/22 07:32:29;;;;;;;27.33;15.00;;;;;-0.50;102692.00;;;;10403099;28;20229;-79
2023/01/22 07:37:30;;;;;;;22.27;13.37;;;;;-0.50;102690.00;;;;10377097;28;20204;-79
2023/01/22 07:42:32;;;;;;;28.13;15.13;;;;;-0.50;102687.00;;;;10354940;28;20298;-80
2023/01/22 07:47:35;;;;;;;31.03;16.17;;;;;-0.50;102686.00;;;;10408906;28;20747;-79
2023/01/22 07:52:37;;;;;;;26.27;13.80;;;;;-0.50;102681.00;;;;10389887;28;20282;-79
2023/01/22 07:57:40;;;;;;;30.53;14.13;;;;;-0.50;102691.00;;;;10368051;28;20195;-79
2023/01/22 08:02:42;;;;;;;24.37;14.13;;;;;-0.40;102693.00;;;;10360227;28;20621;-79
2023/01/22 08:07:43;;;;;;;23.73;12.63;;;;;-0.40;102686.00;;;;10396609;28;20210;-79
2023/01/22 08:12:45;;;;;;;22.33;12.37;;;;;-0.30;102693.00;;;;10379593;28;20223;-80
2023/01/22 08:17:49;;;;;;;19.70;12.13;;;;;-0.30;102695.00;;;;10389737;28;20711;-79
2023/01/22 08:22:58;;;;;;;23.50;12.40;;;;;-0.30;102707.00;;;;10377894;28;20203;-79
2023/01/22 08:28:02;;;;;;;25.20;13.30;;;;;-0.20;102713.00;;;;10379583;28;20214;-79
2023/01/22 08:33:04;;;;;;;24.73;12.80;;;;;-0.20;102720.00;;;;10379897;28;20226;-79
2023/01/22 08:38:06;;;;;;;24.67;13.60;;;;;-0.20;102726.00;;;;10378011;28;20202;-79
2023/01/22 08:43:08;;;;;;;21.70;11.00;;;;;-0.10;102725.00;;;;10388021;28;20210;-79
2023/01/22 08:48:10;;;;;;;20.90;11.73;;;;;-0.10;102713.00;;;;10383354;28;20815;-79
2023/01/22 08:53:12;;;;;;;22.13;11.53;;;;;0.00;102711.00;;;;10393928;28;20859;-79
2023/01/22 08:58:14;;;;;;;22.57;11.93;;;;;0.00;102726.00;;;;10400369;28;20224;-79
2023/01/22 09:03:15;;;;;;;24.90;12.83;;;;;0.10;102717.00;;;;10395815;28;20202;-79
2023/01/22 09:08:18;;;;;;;24.33;12.77;;;;;0.10;102713.00;;;;10379382;28;20230;-79
2023/01/22 09:13:20;;;;;;;23.97;13.23;;;;;0.10;102721.00;;;;10348082;28;20233;-79
2023/01/22 09:18:22;;;;;;;19.27;10.87;;;;;0.20;102725.00;;;;10377795;28;20234;-79
2023/01/22 09:23:24;;;;;;;22.90;11.70;;;;;0.10;102739.00;;;;10394803;28;20207;-78
2023/01/22 09:28:26;;;;;;;19.93;11.23;;;;;0.10;102730.00;;;;10370403;28;20246;-79
2023/01/22 09:33:28;;;;;;;22.97;12.00;;;;;0.10;102737.00;;;;10376329;28;20609;-79
2023/01/22 09:38:30;;;;;;;20.93;12.27;;;;;0.20;102741.00;;;;10408920;28;20207;-79
2023/01/22 09:44:05;;;;;;;19.53;10.80;;;;;0.20;102746.00;;;;10396360;28;20561;-79
2023/01/22 09:49:20;;;;;;;20.20;12.33;;;;;0.20;102739.00;;;;10394709;28;20298;-79
2023/01/22 09:54:23;;;;;;;23.50;12.67;;;;;0.30;102738.00;;;;10376600;28;20232;-79
2023/01/22 09:59:37;;;;;;;27.33;14.33;;;;;0.20;102736.00;;;;10392078;28;20222;-79
2023/01/22 10:04:44;;;;;;;24.47;14.20;;;;;0.20;102743.00;;;;10354780;28;20665;-79
2023/01/22 10:09:51;;;;;;;22.80;12.83;;;;;0.20;102753.00;;;;10403803;28;20191;-79
2023/01/22 10:14:53;;;;;;;26.53;13.30;;;;;0.30;102751.00;;;;10403250;28;20240;-79
2023/01/22 10:20:01;;;;;;;27.73;14.07;;;;;0.20;102752.00;;;;10373673;28;20254;-77
2023/01/22 10:25:03;;;;;;;27.40;14.53;;;;;0.20;102751.00;;;;10392220;28;20253;-79
2023/01/22 10:30:22;;;;;;;23.30;12.87;;;;;0.30;102747.00;;;;10392078;28;20198;-79
2023/01/22 10:35:24;;;;;;;24.27;12.67;;;;;0.30;102753.00;;;;10374632;28;20226;-79
2023/01/22 10:40:39;;;;;;;23.00;11.77;;;;;0.30;102748.00;;;;10358141;28;20645;-78
2023/01/22 10:45:52;;;;;;;23.13;11.67;;;;;0.30;102745.00;;;;10374963;28;20252;-79
2023/01/22 10:51:02;;;;;;;19.13;11.47;;;;;0.40;102742.00;;;;10369321;28;20207;-78
2023/01/22 10:56:09;;;;;;;22.17;11.43;;;;;0.40;102747.00;;;;10335850;28;20242;-78
2023/01/22 11:01:35;;;;;;;21.47;11.03;;;;;0.30;102754.00;;;;10351007;28;20897;-79
2023/01/22 11:06:43;;;;;;;23.20;11.30;;;;;0.40;102743.00;;;;10330102;28;20195;-79
2023/01/22 11:11:56;;;;;;;20.60;11.33;;;;;0.50;102740.00;;;;10409404;28;20218;-78
2023/01/22 11:17:08;;;;;;;17.47;10.40;;;;;0.50;102728.00;;;;10360114;28;20269;-79
2023/01/22 11:22:20;;;;;;;21.17;10.70;;;;;0.40;102726.00;;;;10393145;28;20283;-78
2023/01/22 11:27:54;;;;;;;19.57;9.57;;;;;0.50;102724.00;;;;10348955;28;20405;-78
2023/01/22 11:33:18;;;;;;;18.97;9.97;;;;;0.50;102729.00;;;;10370124;28;20362;-78
2023/01/22 11:38:39;;;;;;;23.90;11.13;;;;;0.40;102720.00;;;;10376001;28;20286;-78
2023/01/22 11:43:40;;;;;;;21.13;10.90;;;;;0.50;102717.00;;;;10396972;28;20215;-79
2023/01/22 11:48:51;;;;;;;19.97;11.13;;;;;0.50;102717.00;;;;10394557;28;20206;-78
2023/01/22 11:54:05;;;;;;;17.27;10.10;;;;;0.60;102711.00;;;;10372670;28;20754;-78
2023/01/22 11:59:10;;;;;;;20.23;11.40;;;;;0.50;102708.00;;;;10347100;28;20195;-79
2023/01/22 12:04:28;;;;;;;15.73;9.63;;;;;0.50;102708.00;;;;10367716;28;20207;-78
2023/01/22 12:09:47;;;;;;;23.77;11.33;;;;;0.50;102703.00;;;;10386988;28;20193;-78
2023/01/22 12:15:04;;;;;;;19.93;9.93;;;;;0.60;102690.00;;;;10368597;28;20272;-78
2023/01/22 12:20:22;;;;;;;21.00;11.23;;;;;0.70;102686.00;;;;10373465;28;20194;-78
2023/01/22 12:25:45;;;;;;;21.77;11.83;;;;;0.80;102674.00;;;;10376859;28;20659;-78
2023/01/22 12:31:02;;;;;;;18.73;10.80;;;;;0.90;102677.00;;;;10367415;28;20219;-78
2023/01/22 12:36:11;;;;;;;21.53;12.03;;;;;0.70;102687.00;;;;10369238;28;20602;-78
2023/01/22 12:41:52;;;;;;;24.37;12.33;;;;;0.80;102677.00;;;;10374403;28;20209;-78
2023/01/22 12:47:20;;;;;;;25.63;11.43;;;;;0.90;102683.00;;;;10367806;28;20210;-78
2023/01/22 12:52:31;;;;;;;19.60;11.50;;;;;0.90;102681.00;;;;10374327;28;20326;-78
2023/01/22 12:57:40;;;;;;;26.40;11.80;;;;;1.00;102679.00;;;;10372043;28;20254;-79
2023/01/22 13:02:42;;;;;;;26.37;11.40;;;;;1.10;102671.00;;;;10349237;28;20203;-79
2023/01/22 13:07:46;;;;;;;16.07;9.20;;;;;1.10;102679.00;;;;10355572;28;20563;-79
2023/01/22 13:12:49;;;;;;;22.47;12.37;;;;;1.10;102685.00;;;;10357850;28;20257;-78
2023/01/22 13:18:01;;;;;;;22.83;11.53;;;;;1.20;102683.00;;;;10369803;28;20217;-78
2023/01/22 13:23:11;;;;;;;22.47;11.37;;;;;1.20;102681.00;;;;10383382;28;20289;-78
2023/01/22 13:28:17;;;;;;;25.67;12.37;;;;;1.20;102677.00;;;;10375219;28;20205;-78
2023/01/22 13:33:19;;;;;;;22.13;11.93;;;;;1.10;102673.00;;;;10380301;28;20305;-79
2023/01/22 13:38:27;;;;;;;20.07;10.83;;;;;1.10;102677.00;;;;10364900;28;20260;-78
2023/01/22 13:43:29;;;;;;;26.07;12.73;;;;;1.10;102680.00;;;;10376181;28;20646;-79
2023/01/22 13:48:31;;;;;;;28.13;13.57;;;;;1.00;102681.00;;;;10338097;28;20199;-78
2023/01/22 13:53:41;;;;;;;30.47;12.73;;;;;1.00;102683.00;;;;10360750;28;20262;-78
2023/01/22 13:58:44;;;;;;;17.90;10.80;;;;;1.00;102694.00;;;;10371670;28;20195;-79
2023/01/22 14:04:00;;;;;;;20.93;12.00;;;;;1.00;102707.00;;;;10350744;28;20196;-78
2023/01/22 14:09:02;;;;;;;22.27;11.80;;;;;1.00;102706.00;;;;10394705;28;20202;-78
2023/01/22 14:14:17;;;;;;;19.70;11.50;;;;;1.00;102699.00;;;;10389262;28;20693;-79
2023/01/22 14:19:19;;;;;;;22.67;11.77;;;;;1.00;102698.00;;;;10403816;28;20206;-78
2023/01/22 14:24:21;;;;;;;17.40;10.63;;;;;0.90;102715.00;;;;10389718;28;20199;-78
2023/01/22 14:29:23;;;;;;;18.77;11.03;;;;;0.90;102704.00;;;;10369753;28;20203;-78
2023/01/22 14:34:25;;;;;;;18.63;10.93;;;;;0.90;102710.00;;;;10416352;28;20297;-78
2023/01/22 14:39:31;;;;;;;16.93;10.07;;;;;0.90;102717.00;;;;10371623;28;20213;-78
2023/01/22 14:44:34;;;;;;;19.57;10.23;;;;;0.90;102722.00;;;;10378377;28;20275;-78
2023/01/22 14:49:38;;;;;;;19.37;10.80;;;;;0.90;102716.00;;;;10369594;28;20744;-78
2023/01/22 14:54:40;;;;;;;18.80;11.07;;;;;0.90;102719.00;;;;10342249;28;20234;-79
2023/01/22 14:59:42;;;;;;;17.20;9.90;;;;;0.80;102728.00;;;;10384275;28;20302;-79
2023/01/22 15:04:44;;;;;;;18.43;9.63;;;;;0.80;102733.00;;;;10366740;28;20286;-79
2023/01/22 15:09:46;;;;;;;20.60;10.93;;;;;0.70;102731.00;;;;10367638;28;20230;-79
2023/01/22 15:14:48;;;;;;;23.00;10.80;;;;;0.70;102741.00;;;;10405953;28;20249;-79
2023/01/22 15:19:50;;;;;;;14.67;8.90;;;;;0.70;102735.00;;;;10392269;28;20582;-78
2023/01/22 15:24:52;;;;;;;18.70;11.70;;;;;0.70;102728.00;;;;10371425;28;20202;-79
2023/01/22 15:29:54;;;;;;;18.90;10.97;;;;;0.70;102735.00;;;;10386292;28;20282;-79
2023/01/22 15:34:56;;;;;;;17.00;10.63;;;;;0.70;102745.00;;;;10360026;28;20226;-79
2023/01/22 15:39:58;;;;;;;19.17;9.80;;;;;0.70;102739.00;;;;10373428;28;20195;-79
2023/01/22 15:45:02;;;;;;;19.77;10.63;;;;;0.70;102738.00;;;;10398143;28;20202;-78
2023/01/22 15:50:05;;;;;;;19.07;10.90;;;;;0.70;102721.00;;;;10365125;28;20230;-78
2023/01/22 15:55:07;;;;;;;23.63;11.17;;;;;0.70;102729.00;;;;10380591;28;20207;-79
2023/01/22 16:00:10;;;;;;;21.27;11.50;;;;;0.60;102735.00;;;;10377035;28;20226;-78
2023/01/22 16:05:15;;;;;;;21.73;12.33;;;;;0.60;102731.00;;;;10390432;28;20298;-78
2023/01/22 16:10:17;;;;;;;20.30;11.23;;;;;0.60;102728.00;;;;10362211;28;20207;-79
2023/01/22 16:15:19;;;;;;;18.90;11.67;;;;;0.50;102735.00;;;;10391731;28;20636;-78
2023/01/22 16:20:21;;;;;;;23.13;11.70;;;;;0.50;102731.00;;;;10356546;28;20195;-79
2023/01/22 16:25:23;;;;;;;17.87;11.53;;;;;0.50;102733.00;;;;10373243;28;20250;-79
2023/01/22 16:30:25;;;;;;;21.70;12.53;;;;;0.50;102740.00;;;;10374370;28;20278;-78
2023/01/22 16:35:27;;;;;;;25.10;11.80;;;;;0.50;102742.00;;;;10373905;28;20218;-79
2023/01/22 16:40:30;;;;;;;20.90;11.13;;;;;0.50;102739.00;;;;10392416;28;20278;-78
2023/01/22 16:45:33;;;;;;;18.33;11.07;;;;;0.50;102738.00;;;;10374452;28;20207;-79
2023/01/22 16:50:35;;;;;;;20.37;11.50;;;;;0.40;102743.00;;;;10386856;28;20195;-78
2023/01/22 16:55:37;;;;;;;21.60;11.83;;;;;0.50;102745.00;;;;10390204;28;20226;-79
2023/01/22 17:00:40;;;;;;;24.50;12.77;;;;;0.40;102743.00;;;;10357841;28;20285;-78
2023/01/22 17:05:42;;;;;;;24.80;13.23;;;;;0.40;102747.00;;;;10358738;28;21076;-78
2023/01/22 17:10:43;;;;;;;22.83;12.53;;;;;0.40;102757.00;;;;10372812;28;20373;-79
2023/01/22 17:15:51;;;;;;;20.97;12.77;;;;;0.40;102760.00;;;;10376275;28;20272;-78
2023/01/22 17:20:54;;;;;;;22.90;12.23;;;;;0.40;102767.00;;;;10376033;28;20207;-78
2023/01/22 17:26:08;;;;;;;25.50;13.33;;;;;0.40;102765.00;;;;10357204;28;20703;-78
2023/01/22 17:31:14;;;;;;;22.30;13.23;;;;;0.40;102767.00;;;;10356147;28;20210;-77
2023/01/22 17:36:21;;;;;;;24.13;13.20;;;;;0.40;102778.00;;;;10363494;28;20219;-78
2023/01/22 17:41:24;;;;;;;23.63;12.97;;;;;0.40;102769.00;;;;10369049;28;20195;-78
2023/01/22 17:46:30;;;;;;;21.33;11.73;;;;;0.40;102781.00;;;;10374694;28;20408;-77
2023/01/22 17:51:34;;;;;;;24.53;14.60;;;;;0.40;102783.00;;;;10353185;28;20214;-77
2023/01/22 17:56:41;;;;;;;24.60;13.53;;;;;0.50;102784.00;;;;10355373;28;20595;-77
2023/01/22 18:01:43;;;;;;;23.63;14.23;;;;;0.50;102780.00;;;;10372913;28;20268;-78
2023/01/22 18:06:46;;;;;;;23.50;13.83;;;;;0.50;102783.00;;;;10375267;28;20292;-78
2023/01/22 18:11:48;;;;;;;25.77;14.23;;;;;0.50;102786.00;;;;10372764;28;20223;-79
2023/01/22 18:16:50;;;;;;;26.60;14.10;;;;;0.50;102785.00;;;;10375078;28;20675;-78
2023/01/22 18:21:52;;;;;;;24.93;13.77;;;;;0.50;102787.00;;;;10357360;28;20202;-78
2023/01/22 18:26:53;;;;;;;26.30;14.63;;;;;0.50;102786.00;;;;10340207;28;20285;-78
2023/01/22 18:31:56;;;;;;;22.50;13.10;;;;;0.50;102786.00;;;;10389468;28;20207;-78
2023/01/22 18:36:57;;;;;;;27.57;14.73;;;;;0.50;102791.00;;;;10358146;28;20305;-78
2023/01/22 18:41:59;;;;;;;21.57;13.50;;;;;0.50;102796.00;;;;10346566;28;20206;-78
2023/01/22 18:47:02;;;;;;;26.53;13.47;;;;;0.50;102792.00;;;;10368245;28;20723;-78
2023/01/22 18:52:04;;;;;;;25.73;13.37;;;;;0.50;102802.00;;;;10365602;28;20290;-78
2023/01/22 18:57:06;;;;;;;23.67;14.43;;;;;0.50;102801.00;;;;10414108;28;20225;-78
2023/01/22 19:02:11;;;;;;;24.07;14.37;;;;;0.50;102799.00;;;;10376429;28;20194;-78
2023/01/22 19:07:13;;;;;;;26.80;13.63;;;;;0.50;102808.00;;;;10340659;28;20216;-78
2023/01/22 19:12:17;;;;;;;24.60;14.27;;;;;0.60;102801.00;;;;10386889;28;20237;-78
2023/01/22 19:17:19;;;;;;;26.23;14.27;;;;;0.60;102805.00;;;;10365321;28;20221;-78
2023/01/22 19:22:22;;;;;;;30.47;15.13;;;;;0.60;102804.00;;;;10371419;28;20200;-78
2023/01/22 19:27:24;;;;;;;31.00;15.93;;;;;0.60;102805.00;;;;10350374;28;20215;-78
2023/01/22 19:32:29;;;;;;;28.40;15.23;;;;;0.60;102805.00;;;;10352845;28;20205;-78
2023/01/22 19:37:31;;;;;;;27.30;15.13;;;;;0.60;102798.00;;;;10354996;28;20214;-77
2023/01/22 19:42:33;;;;;;;26.50;15.30;;;;;0.60;102801.00;;;;10382898;28;20202;-78
2023/01/22 19:47:35;;;;;;;27.87;15.50;;;;;0.60;102813.00;;;;10369844;28;20219;-78
2023/01/22 19:52:37;;;;;;;29.63;17.07;;;;;0.60;102807.00;;;;10381912;28;20768;-78
2023/01/22 19:57:39;;;;;;;25.40;14.63;;;;;0.60;102807.00;;;;10383073;28;20214;-78
2023/01/22 20:02:41;;;;;;;26.67;14.70;;;;;0.60;102812.00;;;;10393363;28;20195;-78
2023/01/22 20:07:44;;;;;;;27.20;14.40;;;;;0.60;102810.00;;;;10380230;28;20687;-77
2023/01/22 20:12:49;;;;;;;27.47;15.07;;;;;0.60;102816.00;;;;10379922;28;20214;-78
2023/01/22 20:17:51;;;;;;;26.13;15.43;;;;;0.60;102834.00;;;;10387131;28;20195;-78
2023/01/22 20:22:53;;;;;;;28.73;16.33;;;;;0.50;102820.00;;;;10362342;28;20202;-77
2023/01/22 20:27:56;;;;;;;26.40;15.13;;;;;0.60;102828.00;;;;10376866;28;20473;-77
2023/01/22 20:32:58;;;;;;;25.50;14.93;;;;;0.60;102829.00;;;;10360395;28;20198;-77
2023/01/22 20:38:00;;;;;;;28.43;15.97;;;;;0.60;102835.00;;;;10393005;28;20206;-78
2023/01/22 20:43:02;;;;;;;31.30;16.80;;;;;0.60;102840.00;;;;10394554;28;20211;-77
2023/01/22 20:48:04;;;;;;;32.33;16.40;;;;;0.60;102850.00;;;;10405982;28;20187;-77
2023/01/22 20:53:06;;;;;;;27.77;15.70;;;;;0.60;102850.00;;;;10365501;28;20195;-78
2023/01/22 20:58:08;;;;;;;34.70;17.37;;;;;0.70;102852.00;;;;10391814;28;20206;-78
2023/01/22 21:03:10;;;;;;;31.53;16.83;;;;;0.70;102854.00;;;;10367199;28;20199;-77
2023/01/22 21:08:13;;;;;;;29.37;17.43;;;;;0.70;102853.00;;;;10385514;28;20272;-78
2023/01/22 21:13:16;;;;;;;32.77;19.13;;;;;0.70;102859.00;;;;10384524;28;20218;-78
2023/01/22 21:18:20;;;;;;;33.77;17.23;;;;;0.70;102857.00;;;;10356271;28;20202;-78
2023/01/22 21:23:22;;;;;;;34.77;18.00;;;;;0.70;102859.00;;;;10375765;28;20202;-77
2023/01/22 21:28:24;;;;;;;36.37;18.37;;;;;0.70;102858.00;;;;10386128;28;20207;-77
2023/01/22 21:33:26;;;;;;;36.37;18.03;;;;;0.70;102863.00;;;;10369027;28;20212;-77
2023/01/22 21:38:28;;;;;;;40.60;19.60;;;;;0.70;102868.00;;;;10354437;28;20199;-78
2023/01/22 21:48:53;;;;;;;40.27;19.70;;;;;0.80;102868.00;;;;10382832;28;20221;-77
2023/01/22 21:53:56;;;;;;;36.57;18.27;;;;;0.70;102880.00;;;;10383712;28;20768;-77
2023/01/22 21:58:58;;;;;;;31.53;17.80;;;;;0.70;102878.00;;;;10379585;28;20281;-77
2023/01/22 22:04:02;;;;;;;31.00;16.73;;;;;0.70;102877.00;;;;10397130;28;20199;-77
2023/01/22 22:09:11;;;;;;;37.67;17.83;;;;;0.70;102884.00;;;;10361973;28;20278;-77
2023/01/22 22:14:15;;;;;;;33.00;17.47;;;;;0.70;102875.00;;;;10401493;28;20229;-77
2023/01/22 22:19:18;;;;;;;35.10;16.63;;;;;0.70;102868.00;;;;10350910;28;20195;-78
2023/01/22 22:24:20;;;;;;;29.73;16.00;;;;;0.70;102889.00;;;;10354197;28;20198;-78
2023/01/22 22:29:22;;;;;;;34.43;16.73;;;;;0.70;102883.00;;;;10396079;28;20586;-77
2023/01/22 22:34:24;;;;;;;28.70;15.83;;;;;0.70;102885.00;;;;10382096;28;20215;-77
2023/01/22 22:39:26;;;;;;;31.60;15.73;;;;;0.80;102882.00;;;;10383591;28;20241;-78
2023/01/22 22:44:28;;;;;;;34.70;15.83;;;;;0.80;102882.00;;;;10350343;28;20203;-77
2023/01/22 22:49:30;;;;;;;29.00;14.63;;;;;0.80;102889.00;;;;10381245;28;20558;-78
2023/01/22 22:54:32;;;;;;;31.33;15.57;;;;;0.80;102884.00;;;;10365551;28;20545;-77
2023/01/22 22:59:34;;;;;;;28.50;15.00;;;;;0.80;102889.00;;;;10389766;28;20196;-77
2023/01/22 23:04:36;;;;;;;35.53;16.30;;;;;0.80;102895.00;;;;10358461;28;20696;-78
2023/01/22 23:09:38;;;;;;;29.70;14.43;;;;;0.70;102886.00;;;;10365473;28;20248;-76
2023/01/22 23:14:40;;;;;;;33.20;16.70;;;;;0.70;102887.00;;;;10358390;28;20285;-76
2023/01/22 23:19:42;;;;;;;26.73;13.40;;;;;0.70;102883.00;;;;10343036;28;20198;-77
2023/01/22 23:24:45;;;;;;;36.47;15.43;;;;;0.70;102880.00;;;;10396786;28;20210;-77
2023/01/22 23:29:47;;;;;;;32.40;16.43;;;;;0.80;102877.00;;;;10394317;28;20191;-77
2023/01/22 23:34:49;;;;;;;36.33;16.27;;;;;0.80;102883.00;;;;10410877;28;20298;-78
2023/01/22 23:39:51;;;;;;;29.53;16.47;;;;;0.70;102886.00;;;;10373932;28;20764;-77
2023/01/22 23:44:53;;;;;;;31.27;16.20;;;;;0.70;102878.00;;;;10389781;28;20203;-78
2023/01/22 23:49:54;;;;;;;31.27;16.00;;;;;0.70;102878.00;;;;10377036;28;20726;-77
2023/01/22 23:54:56;;;;;;;34.40;17.80;;;;;0.70;102883.00;;;;10372623;28;20775;-77
2023/01/22 23:59:59;;;;;;;45.33;18.83;;;;;0.70;102880.00;;;;10392576;28;20195;-77
